sensor_id;sensor_type;location;lat;lon;timestamp;P1;durP1;ratioP1;P2;durP2;ratioP2
22030;SDS011;11179;52.106;21.024;2023-08-08T00:02:06;6.50;;;2.20;;
22030;SDS011;11179;52.106;21.024;2023-08-08T00:04:31;8.40;;;2.30;;
22030;SDS011;11179;52.106;21.024;2023-08-08T00:06:56;6.33;;;2.10;;
22030;SDS011;11179;52.106;21.024;2023-08-08T00:09:22;5.93;;;2.20;;
22030;SDS011;11179;52.106;21.024;2023-08-08T00:11:47;6.93;;;2.20;;
22030;SDS011;11179;52.106;21.024;2023-08-08T00:14:13;6.73;;;2.30;;
22030;SDS011;11179;52.106;21.024;2023-08-08T00:16:39;8.53;;;2.27;;
22030;SDS011;11179;52.106;21.024;2023-08-08T00:19:05;10.97;;;2.33;;
22030;SDS011;11179;52.106;21.024;2023-08-08T00:21:30;11.93;;;1.90;;
22030;SDS011;11179;52.106;21.024;2023-08-08T00:23:55;14.10;;;4.33;;
22030;SDS011;11179;52.106;21.024;2023-08-08T00:26:21;7.03;;;2.30;;
22030;SDS011;11179;52.106;21.024;2023-08-08T00:28:46;5.00;;;2.03;;
22030;SDS011;11179;52.106;21.024;2023-08-08T00:31:11;6.50;;;2.00;;
22030;SDS011;11179;52.106;21.024;2023-08-08T00:33:36;7.50;;;2.00;;
22030;SDS011;11179;52.106;21.024;2023-08-08T00:36:02;8.47;;;2.57;;
22030;SDS011;11179;52.106;21.024;2023-08-08T00:38:27;11.37;;;2.10;;
22030;SDS011;11179;52.106;21.024;2023-08-08T00:40:53;7.30;;;2.20;;
22030;SDS011;11179;52.106;21.024;2023-08-08T00:43:18;9.70;;;2.33;;
22030;SDS011;11179;52.106;21.024;2023-08-08T00:45:43;9.80;;;2.30;;
22030;SDS011;11179;52.106;21.024;2023-08-08T00:48:09;13.73;;;3.23;;
22030;SDS011;11179;52.106;21.024;2023-08-08T00:50:36;11.33;;;3.83;;
22030;SDS011;11179;52.106;21.024;2023-08-08T00:53:03;7.70;;;2.10;;
22030;SDS011;11179;52.106;21.024;2023-08-08T00:55:29;6.40;;;2.20;;
22030;SDS011;11179;52.106;21.024;2023-08-08T00:57:55;14.77;;;3.50;;
22030;SDS011;11179;52.106;21.024;2023-08-08T01:00:21;8.50;;;2.50;;
22030;SDS011;11179;52.106;21.024;2023-08-08T01:02:46;10.67;;;3.03;;
22030;SDS011;11179;52.106;21.024;2023-08-08T01:05:11;12.40;;;2.63;;
22030;SDS011;11179;52.106;21.024;2023-08-08T01:10:32;7.73;;;2.30;;
22030;SDS011;11179;52.106;21.024;2023-08-08T01:13:02;9.67;;;3.03;;
22030;SDS011;11179;52.106;21.024;2023-08-08T01:15:31;7.77;;;2.47;;
22030;SDS011;11179;52.106;21.024;2023-08-08T01:18:01;7.70;;;2.13;;
22030;SDS011;11179;52.106;21.024;2023-08-08T01:20:29;15.70;;;2.73;;
22030;SDS011;11179;52.106;21.024;2023-08-08T01:25:36;5.87;;;2.23;;
22030;SDS011;11179;52.106;21.024;2023-08-08T01:28:03;7.43;;;2.40;;
22030;SDS011;11179;52.106;21.024;2023-08-08T01:30:29;7.00;;;2.47;;
22030;SDS011;11179;52.106;21.024;2023-08-08T01:32:54;11.80;;;3.43;;
22030;SDS011;11179;52.106;21.024;2023-08-08T01:35:19;10.67;;;2.93;;
22030;SDS011;11179;52.106;21.024;2023-08-08T01:37:49;12.50;;;1.90;;
22030;SDS011;11179;52.106;21.024;2023-08-08T01:40:17;8.13;;;2.50;;
22030;SDS011;11179;52.106;21.024;2023-08-08T01:42:45;6.43;;;1.97;;
22030;SDS011;11179;52.106;21.024;2023-08-08T01:45:12;6.30;;;2.23;;
22030;SDS011;11179;52.106;21.024;2023-08-08T01:47:38;6.70;;;2.27;;
22030;SDS011;11179;52.106;21.024;2023-08-08T01:50:03;6.33;;;2.13;;
22030;SDS011;11179;52.106;21.024;2023-08-08T01:52:29;6.63;;;2.20;;
22030;SDS011;11179;52.106;21.024;2023-08-08T01:54:54;6.87;;;1.90;;
22030;SDS011;11179;52.106;21.024;2023-08-08T01:57:20;11.33;;;2.20;;
22030;SDS011;11179;52.106;21.024;2023-08-08T01:59:45;5.67;;;2.20;;
22030;SDS011;11179;52.106;21.024;2023-08-08T02:02:11;6.37;;;2.53;;
22030;SDS011;11179;52.106;21.024;2023-08-08T02:04:36;5.70;;;2.20;;
22030;SDS011;11179;52.106;21.024;2023-08-08T02:07:02;7.30;;;2.50;;
22030;SDS011;11179;52.106;21.024;2023-08-08T02:09:27;8.10;;;2.77;;
22030;SDS011;11179;52.106;21.024;2023-08-08T02:11:52;9.73;;;3.13;;
22030;SDS011;11179;52.106;21.024;2023-08-08T02:14:17;10.63;;;2.43;;
22030;SDS011;11179;52.106;21.024;2023-08-08T02:16:43;10.83;;;2.63;;
22030;SDS011;11179;52.106;21.024;2023-08-08T02:19:08;11.37;;;2.77;;
22030;SDS011;11179;52.106;21.024;2023-08-08T02:21:34;6.33;;;2.37;;
22030;SDS011;11179;52.106;21.024;2023-08-08T02:23:59;16.83;;;3.20;;
22030;SDS011;11179;52.106;21.024;2023-08-08T02:26:24;14.13;;;2.60;;
22030;SDS011;11179;52.106;21.024;2023-08-08T02:28:50;8.07;;;2.33;;
22030;SDS011;11179;52.106;21.024;2023-08-08T02:31:15;7.87;;;2.57;;
22030;SDS011;11179;52.106;21.024;2023-08-08T02:33:46;5.83;;;2.60;;
22030;SDS011;11179;52.106;21.024;2023-08-08T02:36:13;9.67;;;3.00;;
22030;SDS011;11179;52.106;21.024;2023-08-08T02:38:38;11.33;;;2.83;;
22030;SDS011;11179;52.106;21.024;2023-08-08T02:41:03;15.97;;;2.97;;
22030;SDS011;11179;52.106;21.024;2023-08-08T02:43:28;7.20;;;2.83;;
22030;SDS011;11179;52.106;21.024;2023-08-08T02:45:54;10.10;;;2.53;;
22030;SDS011;11179;52.106;21.024;2023-08-08T02:48:19;6.40;;;2.10;;
22030;SDS011;11179;52.106;21.024;2023-08-08T02:50:44;9.03;;;2.80;;
22030;SDS011;11179;52.106;21.024;2023-08-08T02:53:10;7.60;;;2.60;;
22030;SDS011;11179;52.106;21.024;2023-08-08T02:55:36;6.97;;;2.83;;
22030;SDS011;11179;52.106;21.024;2023-08-08T02:58:01;6.67;;;2.17;;
22030;SDS011;11179;52.106;21.024;2023-08-08T03:00:27;7.73;;;2.57;;
22030;SDS011;11179;52.106;21.024;2023-08-08T03:02:52;8.97;;;3.00;;
22030;SDS011;11179;52.106;21.024;2023-08-08T03:05:18;10.47;;;2.57;;
22030;SDS011;11179;52.106;21.024;2023-08-08T03:07:43;9.90;;;1.90;;
22030;SDS011;11179;52.106;21.024;2023-08-08T03:10:09;8.40;;;2.53;;
22030;SDS011;11179;52.106;21.024;2023-08-08T03:12:34;13.80;;;2.63;;
22030;SDS011;11179;52.106;21.024;2023-08-08T03:14:59;11.27;;;2.47;;
22030;SDS011;11179;52.106;21.024;2023-08-08T03:17:25;8.13;;;1.97;;
22030;SDS011;11179;52.106;21.024;2023-08-08T03:19:50;7.40;;;2.27;;
22030;SDS011;11179;52.106;21.024;2023-08-08T03:22:15;9.50;;;2.67;;
22030;SDS011;11179;52.106;21.024;2023-08-08T03:24:41;8.93;;;2.57;;
22030;SDS011;11179;52.106;21.024;2023-08-08T03:27:06;8.53;;;2.80;;
22030;SDS011;11179;52.106;21.024;2023-08-08T03:29:31;8.50;;;2.13;;
22030;SDS011;11179;52.106;21.024;2023-08-08T03:31:57;9.40;;;2.50;;
22030;SDS011;11179;52.106;21.024;2023-08-08T03:34:22;8.03;;;2.30;;
22030;SDS011;11179;52.106;21.024;2023-08-08T03:36:47;9.77;;;2.93;;
22030;SDS011;11179;52.106;21.024;2023-08-08T03:39:12;6.90;;;2.53;;
22030;SDS011;11179;52.106;21.024;2023-08-08T03:41:38;9.10;;;2.17;;
22030;SDS011;11179;52.106;21.024;2023-08-08T03:44:03;7.23;;;2.43;;
22030;SDS011;11179;52.106;21.024;2023-08-08T03:46:29;9.63;;;2.50;;
22030;SDS011;11179;52.106;21.024;2023-08-08T03:48:54;13.93;;;2.97;;
22030;SDS011;11179;52.106;21.024;2023-08-08T03:51:20;14.77;;;4.10;;
22030;SDS011;11179;52.106;21.024;2023-08-08T03:53:45;12.30;;;2.30;;
22030;SDS011;11179;52.106;21.024;2023-08-08T03:56:10;7.00;;;3.27;;
22030;SDS011;11179;52.106;21.024;2023-08-08T03:58:36;8.10;;;2.20;;
22030;SDS011;11179;52.106;21.024;2023-08-08T04:01:02;9.40;;;2.97;;
22030;SDS011;11179;52.106;21.024;2023-08-08T04:03:28;7.90;;;2.23;;
22030;SDS011;11179;52.106;21.024;2023-08-08T04:05:53;8.30;;;2.50;;
22030;SDS011;11179;52.106;21.024;2023-08-08T04:08:18;13.63;;;2.20;;
22030;SDS011;11179;52.106;21.024;2023-08-08T04:10:45;9.77;;;2.70;;
22030;SDS011;11179;52.106;21.024;2023-08-08T04:13:12;9.40;;;2.17;;
22030;SDS011;11179;52.106;21.024;2023-08-08T04:15:37;14.53;;;3.17;;
22030;SDS011;11179;52.106;21.024;2023-08-08T04:18:03;9.10;;;2.47;;
22030;SDS011;11179;52.106;21.024;2023-08-08T04:20:31;19.40;;;2.50;;
22030;SDS011;11179;52.106;21.024;2023-08-08T04:22:56;7.73;;;1.93;;
22030;SDS011;11179;52.106;21.024;2023-08-08T04:25:22;7.33;;;2.20;;
22030;SDS011;11179;52.106;21.024;2023-08-08T04:27:47;5.80;;;2.40;;
22030;SDS011;11179;52.106;21.024;2023-08-08T04:30:12;8.40;;;2.30;;
22030;SDS011;11179;52.106;21.024;2023-08-08T04:32:38;12.90;;;2.53;;
22030;SDS011;11179;52.106;21.024;2023-08-08T04:35:03;5.93;;;2.40;;
22030;SDS011;11179;52.106;21.024;2023-08-08T04:37:29;7.40;;;3.17;;
22030;SDS011;11179;52.106;21.024;2023-08-08T04:39:54;9.70;;;2.50;;
22030;SDS011;11179;52.106;21.024;2023-08-08T04:42:19;9.30;;;2.20;;
22030;SDS011;11179;52.106;21.024;2023-08-08T04:44:44;10.00;;;2.30;;
22030;SDS011;11179;52.106;21.024;2023-08-08T04:47:10;9.23;;;2.70;;
22030;SDS011;11179;52.106;21.024;2023-08-08T04:49:35;11.13;;;2.17;;
22030;SDS011;11179;52.106;21.024;2023-08-08T04:52:00;6.60;;;2.20;;
22030;SDS011;11179;52.106;21.024;2023-08-08T04:54:26;10.53;;;2.23;;
22030;SDS011;11179;52.106;21.024;2023-08-08T04:56:51;6.67;;;2.00;;
22030;SDS011;11179;52.106;21.024;2023-08-08T04:59:16;7.80;;;2.40;;
22030;SDS011;11179;52.106;21.024;2023-08-08T05:01:42;8.50;;;2.23;;
22030;SDS011;11179;52.106;21.024;2023-08-08T05:04:07;9.53;;;2.00;;
22030;SDS011;11179;52.106;21.024;2023-08-08T05:06:33;10.43;;;3.27;;
22030;SDS011;11179;52.106;21.024;2023-08-08T05:08:59;6.30;;;2.13;;
22030;SDS011;11179;52.106;21.024;2023-08-08T05:11:25;12.17;;;2.37;;
22030;SDS011;11179;52.106;21.024;2023-08-08T05:13:50;15.70;;;2.60;;
22030;SDS011;11179;52.106;21.024;2023-08-08T05:16:15;6.00;;;2.13;;
22030;SDS011;11179;52.106;21.024;2023-08-08T05:18:41;9.13;;;2.90;;
22030;SDS011;11179;52.106;21.024;2023-08-08T05:21:09;7.23;;;1.90;;
22030;SDS011;11179;52.106;21.024;2023-08-08T05:23:34;8.57;;;2.40;;
22030;SDS011;11179;52.106;21.024;2023-08-08T05:25:59;11.83;;;2.10;;
22030;SDS011;11179;52.106;21.024;2023-08-08T05:28:25;6.40;;;2.50;;
22030;SDS011;11179;52.106;21.024;2023-08-08T05:30:50;11.30;;;2.50;;
22030;SDS011;11179;52.106;21.024;2023-08-08T05:33:15;6.37;;;2.20;;
22030;SDS011;11179;52.106;21.024;2023-08-08T05:35:41;14.10;;;2.63;;
22030;SDS011;11179;52.106;21.024;2023-08-08T05:38:06;7.33;;;2.10;;
22030;SDS011;11179;52.106;21.024;2023-08-08T05:40:35;7.73;;;2.30;;
22030;SDS011;11179;52.106;21.024;2023-08-08T05:43:01;13.47;;;2.80;;
22030;SDS011;11179;52.106;21.024;2023-08-08T05:45:27;6.70;;;2.73;;
22030;SDS011;11179;52.106;21.024;2023-08-08T05:47:52;7.97;;;2.20;;
22030;SDS011;11179;52.106;21.024;2023-08-08T05:50:18;6.03;;;2.03;;
22030;SDS011;11179;52.106;21.024;2023-08-08T05:52:44;7.37;;;2.20;;
22030;SDS011;11179;52.106;21.024;2023-08-08T05:55:09;8.20;;;2.23;;
22030;SDS011;11179;52.106;21.024;2023-08-08T05:57:34;10.40;;;2.47;;
22030;SDS011;11179;52.106;21.024;2023-08-08T06:00:00;9.50;;;2.43;;
22030;SDS011;11179;52.106;21.024;2023-08-08T06:02:25;6.73;;;2.53;;
22030;SDS011;11179;52.106;21.024;2023-08-08T06:04:51;13.20;;;2.70;;
22030;SDS011;11179;52.106;21.024;2023-08-08T06:07:16;13.80;;;2.70;;
22030;SDS011;11179;52.106;21.024;2023-08-08T06:09:41;8.90;;;2.27;;
22030;SDS011;11179;52.106;21.024;2023-08-08T06:12:07;9.90;;;2.33;;
22030;SDS011;11179;52.106;21.024;2023-08-08T06:14:32;6.90;;;2.20;;
22030;SDS011;11179;52.106;21.024;2023-08-08T06:16:58;5.93;;;2.20;;
22030;SDS011;11179;52.106;21.024;2023-08-08T06:19:23;7.10;;;2.03;;
22030;SDS011;11179;52.106;21.024;2023-08-08T06:21:48;9.30;;;2.27;;
22030;SDS011;11179;52.106;21.024;2023-08-08T06:24:14;6.47;;;1.87;;
22030;SDS011;11179;52.106;21.024;2023-08-08T06:26:39;6.60;;;2.47;;
22030;SDS011;11179;52.106;21.024;2023-08-08T06:29:04;14.40;;;2.67;;
22030;SDS011;11179;52.106;21.024;2023-08-08T06:31:30;9.03;;;2.47;;
22030;SDS011;11179;52.106;21.024;2023-08-08T06:33:55;7.50;;;2.37;;
22030;SDS011;11179;52.106;21.024;2023-08-08T06:36:21;9.20;;;2.20;;
22030;SDS011;11179;52.106;21.024;2023-08-08T06:38:46;11.20;;;2.30;;
22030;SDS011;11179;52.106;21.024;2023-08-08T06:41:11;14.80;;;2.40;;
22030;SDS011;11179;52.106;21.024;2023-08-08T06:43:37;13.97;;;2.60;;
22030;SDS011;11179;52.106;21.024;2023-08-08T06:46:02;10.90;;;2.13;;
22030;SDS011;11179;52.106;21.024;2023-08-08T06:48:28;11.10;;;2.50;;
22030;SDS011;11179;52.106;21.024;2023-08-08T06:50:53;10.23;;;2.83;;
22030;SDS011;11179;52.106;21.024;2023-08-08T06:53:18;6.87;;;2.00;;
22030;SDS011;11179;52.106;21.024;2023-08-08T06:55:44;9.43;;;2.10;;
22030;SDS011;11179;52.106;21.024;2023-08-08T06:58:09;10.70;;;2.23;;
22030;SDS011;11179;52.106;21.024;2023-08-08T07:00:35;11.50;;;2.10;;
22030;SDS011;11179;52.106;21.024;2023-08-08T07:03:00;10.77;;;2.00;;
22030;SDS011;11179;52.106;21.024;2023-08-08T07:05:25;8.93;;;2.67;;
22030;SDS011;11179;52.106;21.024;2023-08-08T07:07:51;7.53;;;2.50;;
22030;SDS011;11179;52.106;21.024;2023-08-08T07:10:17;9.60;;;2.80;;
22030;SDS011;11179;52.106;21.024;2023-08-08T07:12:43;5.20;;;2.07;;
22030;SDS011;11179;52.106;21.024;2023-08-08T07:15:09;7.00;;;1.90;;
22030;SDS011;11179;52.106;21.024;2023-08-08T07:17:35;6.53;;;2.17;;
22030;SDS011;11179;52.106;21.024;2023-08-08T07:20:00;7.77;;;2.40;;
22030;SDS011;11179;52.106;21.024;2023-08-08T07:22:27;7.93;;;2.20;;
22030;SDS011;11179;52.106;21.024;2023-08-08T07:24:52;8.40;;;2.03;;
22030;SDS011;11179;52.106;21.024;2023-08-08T07:27:17;5.77;;;1.90;;
22030;SDS011;11179;52.106;21.024;2023-08-08T07:29:43;5.43;;;1.83;;
22030;SDS011;11179;52.106;21.024;2023-08-08T07:32:08;9.53;;;2.33;;
22030;SDS011;11179;52.106;21.024;2023-08-08T07:34:34;8.40;;;2.27;;
22030;SDS011;11179;52.106;21.024;2023-08-08T07:36:59;6.50;;;2.00;;
22030;SDS011;11179;52.106;21.024;2023-08-08T07:39:25;5.80;;;1.90;;
22030;SDS011;11179;52.106;21.024;2023-08-08T07:41:51;8.47;;;2.30;;
22030;SDS011;11179;52.106;21.024;2023-08-08T07:44:16;7.27;;;2.63;;
22030;SDS011;11179;52.106;21.024;2023-08-08T07:46:42;7.33;;;2.20;;
22030;SDS011;11179;52.106;21.024;2023-08-08T07:49:07;12.50;;;2.60;;
22030;SDS011;11179;52.106;21.024;2023-08-08T07:51:34;8.97;;;1.90;;
22030;SDS011;11179;52.106;21.024;2023-08-08T07:54:00;8.23;;;2.03;;
22030;SDS011;11179;52.106;21.024;2023-08-08T07:56:25;10.23;;;2.70;;
22030;SDS011;11179;52.106;21.024;2023-08-08T07:58:50;13.17;;;3.70;;
22030;SDS011;11179;52.106;21.024;2023-08-08T08:01:16;9.83;;;2.00;;
22030;SDS011;11179;52.106;21.024;2023-08-08T08:03:41;6.20;;;1.80;;
22030;SDS011;11179;52.106;21.024;2023-08-08T08:06:07;6.63;;;2.00;;
22030;SDS011;11179;52.106;21.024;2023-08-08T08:08:32;6.40;;;2.00;;
22030;SDS011;11179;52.106;21.024;2023-08-08T08:10:58;8.87;;;1.93;;
22030;SDS011;11179;52.106;21.024;2023-08-08T08:13:23;7.73;;;2.07;;
22030;SDS011;11179;52.106;21.024;2023-08-08T08:15:48;10.20;;;2.23;;
22030;SDS011;11179;52.106;21.024;2023-08-08T08:18:14;6.70;;;1.93;;
22030;SDS011;11179;52.106;21.024;2023-08-08T08:20:42;10.97;;;2.30;;
22030;SDS011;11179;52.106;21.024;2023-08-08T08:23:08;5.00;;;1.70;;
22030;SDS011;11179;52.106;21.024;2023-08-08T08:25:33;7.37;;;2.80;;
22030;SDS011;11179;52.106;21.024;2023-08-08T08:27:58;8.60;;;2.43;;
22030;SDS011;11179;52.106;21.024;2023-08-08T08:30:23;5.83;;;1.57;;
22030;SDS011;11179;52.106;21.024;2023-08-08T08:32:51;6.40;;;1.90;;
22030;SDS011;11179;52.106;21.024;2023-08-08T08:35:16;5.73;;;2.37;;
22030;SDS011;11179;52.106;21.024;2023-08-08T08:37:42;5.40;;;2.10;;
22030;SDS011;11179;52.106;21.024;2023-08-08T08:40:07;8.27;;;2.23;;
22030;SDS011;11179;52.106;21.024;2023-08-08T08:42:34;12.90;;;2.10;;
22030;SDS011;11179;52.106;21.024;2023-08-08T08:44:59;8.47;;;2.37;;
22030;SDS011;11179;52.106;21.024;2023-08-08T08:47:27;10.13;;;2.53;;
22030;SDS011;11179;52.106;21.024;2023-08-08T08:49:55;6.03;;;1.50;;
22030;SDS011;11179;52.106;21.024;2023-08-08T08:52:22;6.13;;;2.30;;
22030;SDS011;11179;52.106;21.024;2023-08-08T08:54:48;6.50;;;1.80;;
22030;SDS011;11179;52.106;21.024;2023-08-08T08:57:13;9.17;;;2.33;;
22030;SDS011;11179;52.106;21.024;2023-08-08T08:59:39;5.60;;;1.93;;
22030;SDS011;11179;52.106;21.024;2023-08-08T09:02:04;6.50;;;2.07;;
22030;SDS011;11179;52.106;21.024;2023-08-08T09:04:31;9.23;;;2.00;;
22030;SDS011;11179;52.106;21.024;2023-08-08T09:06:57;4.47;;;1.77;;
22030;SDS011;11179;52.106;21.024;2023-08-08T09:09:23;11.50;;;2.47;;
22030;SDS011;11179;52.106;21.024;2023-08-08T09:11:50;7.80;;;1.80;;
22030;SDS011;11179;52.106;21.024;2023-08-08T09:14:19;8.80;;;1.90;;
22030;SDS011;11179;52.106;21.024;2023-08-08T09:16:48;14.57;;;2.30;;
22030;SDS011;11179;52.106;21.024;2023-08-08T09:19:15;8.40;;;2.40;;
22030;SDS011;11179;52.106;21.024;2023-08-08T09:21:41;8.00;;;1.80;;
22030;SDS011;11179;52.106;21.024;2023-08-08T09:24:06;7.97;;;1.80;;
22030;SDS011;11179;52.106;21.024;2023-08-08T09:26:32;8.27;;;2.30;;
22030;SDS011;11179;52.106;21.024;2023-08-08T09:28:59;5.53;;;1.90;;
22030;SDS011;11179;52.106;21.024;2023-08-08T09:31:25;6.83;;;1.77;;
22030;SDS011;11179;52.106;21.024;2023-08-08T09:33:51;6.80;;;1.87;;
22030;SDS011;11179;52.106;21.024;2023-08-08T09:36:18;10.60;;;2.33;;
22030;SDS011;11179;52.106;21.024;2023-08-08T09:38:46;8.40;;;1.77;;
22030;SDS011;11179;52.106;21.024;2023-08-08T09:41:11;4.83;;;1.70;;
22030;SDS011;11179;52.106;21.024;2023-08-08T09:43:37;8.70;;;2.03;;
22030;SDS011;11179;52.106;21.024;2023-08-08T09:46:03;10.03;;;2.10;;
22030;SDS011;11179;52.106;21.024;2023-08-08T09:48:32;5.50;;;1.70;;
22030;SDS011;11179;52.106;21.024;2023-08-08T09:51:01;5.43;;;1.73;;
22030;SDS011;11179;52.106;21.024;2023-08-08T09:53:27;5.90;;;2.43;;
22030;SDS011;11179;52.106;21.024;2023-08-08T09:55:56;8.17;;;1.70;;
22030;SDS011;11179;52.106;21.024;2023-08-08T09:58:22;5.77;;;1.40;;
22030;SDS011;11179;52.106;21.024;2023-08-08T10:00:51;5.33;;;1.90;;
22030;SDS011;11179;52.106;21.024;2023-08-08T10:03:17;5.50;;;1.60;;
22030;SDS011;11179;52.106;21.024;2023-08-08T10:05:43;5.10;;;1.53;;
22030;SDS011;11179;52.106;21.024;2023-08-08T10:08:09;5.57;;;1.90;;
22030;SDS011;11179;52.106;21.024;2023-08-08T10:10:36;9.23;;;2.37;;
22030;SDS011;11179;52.106;21.024;2023-08-08T10:13:02;5.83;;;2.07;;
22030;SDS011;11179;52.106;21.024;2023-08-08T10:15:28;5.73;;;1.43;;
22030;SDS011;11179;52.106;21.024;2023-08-08T10:17:55;6.57;;;1.93;;
22030;SDS011;11179;52.106;21.024;2023-08-08T10:20:22;7.00;;;1.93;;
22030;SDS011;11179;52.106;21.024;2023-08-08T10:22:52;7.30;;;1.93;;
22030;SDS011;11179;52.106;21.024;2023-08-08T10:25:23;5.30;;;1.40;;
22030;SDS011;11179;52.106;21.024;2023-08-08T10:27:50;8.40;;;1.57;;
22030;SDS011;11179;52.106;21.024;2023-08-08T10:30:45;5.80;;;1.83;;
22030;SDS011;11179;52.106;21.024;2023-08-08T10:33:20;9.50;;;2.10;;
22030;SDS011;11179;52.106;21.024;2023-08-08T10:38:22;10.87;;;1.93;;
22030;SDS011;11179;52.106;21.024;2023-08-08T10:40:47;6.50;;;1.67;;
22030;SDS011;11179;52.106;21.024;2023-08-08T10:43:24;5.93;;;2.40;;
22030;SDS011;11179;52.106;21.024;2023-08-08T10:45:51;5.87;;;1.60;;
22030;SDS011;11179;52.106;21.024;2023-08-08T10:48:16;4.70;;;1.37;;
22030;SDS011;11179;52.106;21.024;2023-08-08T10:50:43;10.20;;;2.03;;
22030;SDS011;11179;52.106;21.024;2023-08-08T10:53:08;7.47;;;1.87;;
22030;SDS011;11179;52.106;21.024;2023-08-08T10:55:37;8.50;;;1.47;;
22030;SDS011;11179;52.106;21.024;2023-08-08T10:58:10;6.37;;;1.77;;
22030;SDS011;11179;52.106;21.024;2023-08-08T11:00:40;5.47;;;1.30;;
22030;SDS011;11179;52.106;21.024;2023-08-08T11:03:06;5.13;;;1.40;;
22030;SDS011;11179;52.106;21.024;2023-08-08T11:05:34;8.40;;;1.80;;
22030;SDS011;11179;52.106;21.024;2023-08-08T11:08:01;4.20;;;1.53;;
22030;SDS011;11179;52.106;21.024;2023-08-08T11:10:28;7.03;;;1.50;;
22030;SDS011;11179;52.106;21.024;2023-08-08T11:12:58;4.47;;;1.17;;
22030;SDS011;11179;52.106;21.024;2023-08-08T11:15:25;8.23;;;1.70;;
22030;SDS011;11179;52.106;21.024;2023-08-08T11:17:52;5.27;;;1.40;;
22030;SDS011;11179;52.106;21.024;2023-08-08T11:20:18;6.80;;;1.70;;
22030;SDS011;11179;52.106;21.024;2023-08-08T11:22:43;5.70;;;1.40;;
22030;SDS011;11179;52.106;21.024;2023-08-08T11:25:09;4.93;;;1.30;;
22030;SDS011;11179;52.106;21.024;2023-08-08T11:27:34;4.57;;;1.37;;
22030;SDS011;11179;52.106;21.024;2023-08-08T11:29:59;4.40;;;1.40;;
22030;SDS011;11179;52.106;21.024;2023-08-08T11:32:25;4.50;;;1.30;;
22030;SDS011;11179;52.106;21.024;2023-08-08T11:34:53;6.43;;;1.67;;
22030;SDS011;11179;52.106;21.024;2023-08-08T11:37:19;6.67;;;1.30;;
22030;SDS011;11179;52.106;21.024;2023-08-08T11:39:45;7.70;;;1.53;;
22030;SDS011;11179;52.106;21.024;2023-08-08T11:42:10;7.10;;;1.70;;
22030;SDS011;11179;52.106;21.024;2023-08-08T11:44:36;6.00;;;1.60;;
22030;SDS011;11179;52.106;21.024;2023-08-08T11:47:02;5.00;;;1.40;;
22030;SDS011;11179;52.106;21.024;2023-08-08T11:49:27;12.17;;;1.47;;
22030;SDS011;11179;52.106;21.024;2023-08-08T11:51:53;9.60;;;1.63;;
22030;SDS011;11179;52.106;21.024;2023-08-08T11:54:26;14.70;;;1.50;;
22030;SDS011;11179;52.106;21.024;2023-08-08T11:56:53;4.73;;;1.40;;
22030;SDS011;11179;52.106;21.024;2023-08-08T11:59:18;10.23;;;1.30;;
22030;SDS011;11179;52.106;21.024;2023-08-08T12:01:44;4.60;;;1.30;;
22030;SDS011;11179;52.106;21.024;2023-08-08T12:04:09;7.93;;;1.33;;
22030;SDS011;11179;52.106;21.024;2023-08-08T12:06:38;8.97;;;1.67;;
22030;SDS011;11179;52.106;21.024;2023-08-08T12:09:13;4.00;;;1.10;;
22030;SDS011;11179;52.106;21.024;2023-08-08T12:11:38;4.43;;;1.20;;
22030;SDS011;11179;52.106;21.024;2023-08-08T12:14:06;9.50;;;1.30;;
22030;SDS011;11179;52.106;21.024;2023-08-08T12:16:33;5.63;;;1.40;;
22030;SDS011;11179;52.106;21.024;2023-08-08T12:19:00;6.07;;;1.60;;
22030;SDS011;11179;52.106;21.024;2023-08-08T12:21:27;6.80;;;1.37;;
22030;SDS011;11179;52.106;21.024;2023-08-08T12:23:53;6.87;;;1.43;;
22030;SDS011;11179;52.106;21.024;2023-08-08T12:26:18;5.63;;;1.50;;
22030;SDS011;11179;52.106;21.024;2023-08-08T12:28:43;6.50;;;1.20;;
22030;SDS011;11179;52.106;21.024;2023-08-08T12:31:09;6.13;;;1.17;;
22030;SDS011;11179;52.106;21.024;2023-08-08T12:33:34;5.70;;;1.53;;
22030;SDS011;11179;52.106;21.024;2023-08-08T12:36:00;9.00;;;1.63;;
22030;SDS011;11179;52.106;21.024;2023-08-08T12:38:25;13.40;;;1.80;;
22030;SDS011;11179;52.106;21.024;2023-08-08T12:40:50;7.93;;;1.47;;
22030;SDS011;11179;52.106;21.024;2023-08-08T12:43:16;6.43;;;1.40;;
22030;SDS011;11179;52.106;21.024;2023-08-08T12:45:46;6.67;;;1.40;;
22030;SDS011;11179;52.106;21.024;2023-08-08T12:48:12;4.40;;;1.30;;
22030;SDS011;11179;52.106;21.024;2023-08-08T12:50:38;9.23;;;1.77;;
22030;SDS011;11179;52.106;21.024;2023-08-08T12:53:03;6.73;;;1.27;;
22030;SDS011;11179;52.106;21.024;2023-08-08T12:55:29;5.73;;;1.33;;
22030;SDS011;11179;52.106;21.024;2023-08-08T12:57:55;4.70;;;1.37;;
22030;SDS011;11179;52.106;21.024;2023-08-08T13:00:21;5.23;;;1.23;;
22030;SDS011;11179;52.106;21.024;2023-08-08T13:02:46;7.53;;;1.50;;
22030;SDS011;11179;52.106;21.024;2023-08-08T13:05:12;3.90;;;1.33;;
22030;SDS011;11179;52.106;21.024;2023-08-08T13:07:37;7.07;;;1.50;;
22030;SDS011;11179;52.106;21.024;2023-08-08T13:10:03;4.80;;;1.40;;
22030;SDS011;11179;52.106;21.024;2023-08-08T13:12:28;6.50;;;1.57;;
22030;SDS011;11179;52.106;21.024;2023-08-08T13:14:53;4.20;;;1.30;;
22030;SDS011;11179;52.106;21.024;2023-08-08T13:17:19;4.87;;;1.30;;
22030;SDS011;11179;52.106;21.024;2023-08-08T13:19:44;4.30;;;1.30;;
22030;SDS011;11179;52.106;21.024;2023-08-08T13:22:10;6.30;;;1.50;;
22030;SDS011;11179;52.106;21.024;2023-08-08T13:24:36;7.10;;;1.70;;
22030;SDS011;11179;52.106;21.024;2023-08-08T13:27:01;9.03;;;1.37;;
22030;SDS011;11179;52.106;21.024;2023-08-08T13:29:26;4.40;;;1.20;;
22030;SDS011;11179;52.106;21.024;2023-08-08T13:31:52;7.03;;;1.20;;
22030;SDS011;11179;52.106;21.024;2023-08-08T13:34:17;5.83;;;1.70;;
22030;SDS011;11179;52.106;21.024;2023-08-08T13:36:43;4.37;;;1.30;;
22030;SDS011;11179;52.106;21.024;2023-08-08T13:39:08;6.37;;;1.63;;
22030;SDS011;11179;52.106;21.024;2023-08-08T13:41:35;7.13;;;1.73;;
22030;SDS011;11179;52.106;21.024;2023-08-08T13:44:00;11.00;;;1.50;;
22030;SDS011;11179;52.106;21.024;2023-08-08T13:46:25;5.23;;;1.50;;
22030;SDS011;11179;52.106;21.024;2023-08-08T13:48:51;4.47;;;1.47;;
22030;SDS011;11179;52.106;21.024;2023-08-08T13:51:16;6.40;;;1.43;;
22030;SDS011;11179;52.106;21.024;2023-08-08T13:53:42;9.90;;;1.50;;
22030;SDS011;11179;52.106;21.024;2023-08-08T13:56:07;7.40;;;1.47;;
22030;SDS011;11179;52.106;21.024;2023-08-08T13:58:33;5.33;;;1.30;;
22030;SDS011;11179;52.106;21.024;2023-08-08T14:00:58;4.47;;;1.33;;
22030;SDS011;11179;52.106;21.024;2023-08-08T14:03:24;18.33;;;1.70;;
22030;SDS011;11179;52.106;21.024;2023-08-08T14:05:50;7.93;;;1.40;;
22030;SDS011;11179;52.106;21.024;2023-08-08T14:08:17;4.77;;;1.10;;
22030;SDS011;11179;52.106;21.024;2023-08-08T14:10:43;6.60;;;1.43;;
22030;SDS011;11179;52.106;21.024;2023-08-08T14:13:08;6.10;;;1.47;;
22030;SDS011;11179;52.106;21.024;2023-08-08T14:15:36;6.30;;;1.70;;
22030;SDS011;11179;52.106;21.024;2023-08-08T14:18:01;4.07;;;1.37;;
22030;SDS011;11179;52.106;21.024;2023-08-08T14:20:27;6.07;;;1.50;;
22030;SDS011;11179;52.106;21.024;2023-08-08T14:22:52;5.00;;;1.30;;
22030;SDS011;11179;52.106;21.024;2023-08-08T14:25:17;6.23;;;1.70;;
22030;SDS011;11179;52.106;21.024;2023-08-08T14:27:43;10.00;;;1.63;;
22030;SDS011;11179;52.106;21.024;2023-08-08T14:30:08;7.93;;;1.20;;
22030;SDS011;11179;52.106;21.024;2023-08-08T14:32:35;14.43;;;2.10;;